sensor_id;sensor_type;location;lat;lon;timestamp;pressure;altitude;pressure_sealevel;temperature;humidity
34243;BME280;20504;43.214;27.920;2023-04-05T00:00:25;95886.22;;;5.80;100.00
34243;BME280;20504;43.214;27.920;2023-04-05T00:02:50;95912.03;;;5.76;100.00
34243;BME280;20504;43.214;27.920;2023-04-05T00:05:17;95897.91;;;5.77;100.00
34243;BME280;20504;43.214;27.920;2023-04-05T00:07:57;95858.84;;;5.74;100.00
34243;BME280;20504;43.214;27.920;2023-04-05T00:10:23;95825.59;;;5.52;100.00
34243;BME280;20504;43.214;27.920;2023-04-05T00:12:49;95845.53;;;5.61;100.00
34243;BME280;20504;43.214;27.920;2023-04-05T00:15:15;95799.44;;;5.58;100.00
34243;BME280;20504;43.214;27.920;2023-04-05T00:17:41;95798.59;;;5.58;100.00
34243;BME280;20504;43.214;27.920;2023-04-05T00:20:08;95793.81;;;5.61;100.00
34243;BME280;20504;43.214;27.920;2023-04-05T00:22:36;95786.75;;;5.47;100.00
34243;BME280;20504;43.214;27.920;2023-04-05T00:25:03;95724.56;;;5.54;100.00
34243;BME280;20504;43.214;27.920;2023-04-05T00:27:28;95666.78;;;5.54;100.00
34243;BME280;20504;43.214;27.920;2023-04-05T00:29:54;95657.00;;;5.48;100.00
34243;BME280;20504;43.214;27.920;2023-04-05T00:32:20;95594.03;;;5.55;100.00
34243;BME280;20504;43.214;27.920;2023-04-05T00:34:46;95540.69;;;5.54;100.00
34243;BME280;20504;43.214;27.920;2023-04-05T00:37:11;95513.53;;;5.47;100.00
34243;BME280;20504;43.214;27.920;2023-04-05T00:39:40;95474.91;;;5.41;100.00
34243;BME280;20504;43.214;27.920;2023-04-05T00:42:06;95456.63;;;5.54;100.00
34243;BME280;20504;43.214;27.920;2023-04-05T00:44:32;95435.88;;;5.38;100.00
34243;BME280;20504;43.214;27.920;2023-04-05T00:47:01;95366.47;;;5.54;100.00
34243;BME280;20504;43.214;27.920;2023-04-05T00:49:28;95330.09;;;5.51;100.00
34243;BME280;20504;43.214;27.920;2023-04-05T00:51:56;95288.03;;;5.44;100.00
34243;BME280;20504;43.214;27.920;2023-04-05T00:54:21;95271.91;;;5.47;100.00
34243;BME280;20504;43.214;27.920;2023-04-05T00:56:47;95245.41;;;5.42;100.00
34243;BME280;20504;43.214;27.920;2023-04-05T00:59:13;95182.59;;;5.54;100.00
34243;BME280;20504;43.214;27.920;2023-04-05T01:01:39;95153.69;;;5.47;100.00
34243;BME280;20504;43.214;27.920;2023-04-05T01:04:05;95111.69;;;5.40;100.00
34243;BME280;20504;43.214;27.920;2023-04-05T01:06:43;95087.00;;;5.35;100.00
34243;BME280;20504;43.214;27.920;2023-04-05T01:12:04;94978.13;;;5.37;100.00
34243;BME280;20504;43.214;27.920;2023-04-05T01:14:31;94912.69;;;5.36;100.00
34243;BME280;20504;43.214;27.920;2023-04-05T01:16:56;94844.00;;;5.39;100.00
34243;BME280;20504;43.214;27.920;2023-04-05T01:19:25;94819.56;;;5.45;100.00
34243;BME280;20504;43.214;27.920;2023-04-05T01:27:13;94726.06;;;5.31;100.00
34243;BME280;20504;43.214;27.920;2023-04-05T01:37:48;94600.00;;;5.37;100.00
34243;BME280;20504;43.214;27.920;2023-04-05T01:40:14;94557.88;;;5.26;100.00
34243;BME280;20504;43.214;27.920;2023-04-05T01:42:42;94541.50;;;5.30;100.00
34243;BME280;20504;43.214;27.920;2023-04-05T01:45:08;94434.88;;;5.29;100.00
34243;BME280;20504;43.214;27.920;2023-04-05T01:47:34;94422.88;;;5.40;100.00
34243;BME280;20504;43.214;27.920;2023-04-05T01:49:59;94406.25;;;5.46;100.00
34243;BME280;20504;43.214;27.920;2023-04-05T01:52:25;94356.97;;;5.48;100.00
34243;BME280;20504;43.214;27.920;2023-04-05T01:54:51;94325.72;;;5.22;100.00
34243;BME280;20504;43.214;27.920;2023-04-05T01:57:16;94306.34;;;5.41;100.00
34243;BME280;20504;43.214;27.920;2023-04-05T01:59:42;94328.19;;;5.35;100.00
34243;BME280;20504;43.214;27.920;2023-04-05T02:02:07;94286.25;;;5.28;100.00
34243;BME280;20504;43.214;27.920;2023-04-05T02:04:33;94301.56;;;5.31;100.00
34243;BME280;20504;43.214;27.920;2023-04-05T02:06:58;94235.69;;;5.39;100.00
34243;BME280;20504;43.214;27.920;2023-04-05T02:09:24;94203.50;;;5.44;100.00
34243;BME280;20504;43.214;27.920;2023-04-05T02:11:50;94142.28;;;5.62;100.00
34243;BME280;20504;43.214;27.920;2023-04-05T02:14:15;94146.19;;;5.41;100.00
34243;BME280;20504;43.214;27.920;2023-04-05T02:16:41;94160.25;;;5.46;100.00
34243;BME280;20504;43.214;27.920;2023-04-05T02:19:07;94111.25;;;5.40;100.00
34243;BME280;20504;43.214;27.920;2023-04-05T02:21:32;94134.69;;;5.24;100.00
34243;BME280;20504;43.214;27.920;2023-04-05T02:23:58;94076.91;;;5.42;100.00
34243;BME280;20504;43.214;27.920;2023-04-05T02:26:24;94044.03;;;5.39;100.00
34243;BME280;20504;43.214;27.920;2023-04-05T02:28:49;94060.66;;;5.33;100.00
34243;BME280;20504;43.214;27.920;2023-04-05T02:31:15;93996.44;;;5.47;100.00
34243;BME280;20504;43.214;27.920;2023-04-05T02:33:40;93923.81;;;5.53;100.00
34243;BME280;20504;43.214;27.920;2023-04-05T02:36:07;93951.69;;;5.66;100.00
34243;BME280;20504;43.214;27.920;2023-04-05T02:38:36;93948.16;;;5.60;100.00
34243;BME280;20504;43.214;27.920;2023-04-05T02:41:02;93976.59;;;5.63;100.00
34243;BME280;20504;43.214;27.920;2023-04-05T02:43:28;93935.13;;;5.89;100.00
34243;BME280;20504;43.214;27.920;2023-04-05T02:45:54;94020.53;;;5.56;100.00
34243;BME280;20504;43.214;27.920;2023-04-05T02:48:19;93983.44;;;5.64;100.00
34243;BME280;20504;43.214;27.920;2023-04-05T02:50:49;93990.75;;;5.74;100.00
34243;BME280;20504;43.214;27.920;2023-04-05T02:53:15;94013.94;;;5.65;100.00
34243;BME280;20504;43.214;27.920;2023-04-05T02:55:41;93984.38;;;5.82;100.00
34243;BME280;20504;43.214;27.920;2023-04-05T02:58:07;93973.16;;;5.74;100.00
34243;BME280;20504;43.214;27.920;2023-04-05T03:00:33;94044.53;;;5.71;100.00
34243;BME280;20504;43.214;27.920;2023-04-05T03:02:59;94089.97;;;5.60;100.00
34243;BME280;20504;43.214;27.920;2023-04-05T03:05:24;94100.03;;;5.63;100.00
34243;BME280;20504;43.214;27.920;2023-04-05T03:07:50;94106.13;;;5.45;100.00
34243;BME280;20504;43.214;27.920;2023-04-05T03:10:17;94143.41;;;5.36;100.00
34243;BME280;20504;43.214;27.920;2023-04-05T03:12:44;94253.03;;;5.40;100.00
34243;BME280;20504;43.214;27.920;2023-04-05T03:15:10;94291.88;;;5.50;100.00
34243;BME280;20504;43.214;27.920;2023-04-05T03:17:35;94282.56;;;5.54;100.00
34243;BME280;20504;43.214;27.920;2023-04-05T03:20:02;94267.00;;;5.53;100.00
34243;BME280;20504;43.214;27.920;2023-04-05T03:22:30;94293.84;;;5.55;100.00
34243;BME280;20504;43.214;27.920;2023-04-05T03:24:56;94312.47;;;5.53;100.00
34243;BME280;20504;43.214;27.920;2023-04-05T03:27:21;94332.38;;;5.42;100.00
34243;BME280;20504;43.214;27.920;2023-04-05T03:29:47;94357.03;;;5.41;100.00
34243;BME280;20504;43.214;27.920;2023-04-05T03:32:13;94356.31;;;5.53;100.00
34243;BME280;20504;43.214;27.920;2023-04-05T03:34:39;94353.31;;;5.49;100.00
34243;BME280;20504;43.214;27.920;2023-04-05T03:37:05;94351.28;;;5.51;100.00
34243;BME280;20504;43.214;27.920;2023-04-05T03:39:30;94353.81;;;5.58;100.00
34243;BME280;20504;43.214;27.920;2023-04-05T03:41:55;94330.28;;;5.69;100.00
34243;BME280;20504;43.214;27.920;2023-04-05T03:44:21;94377.25;;;5.59;100.00
34243;BME280;20504;43.214;27.920;2023-04-05T03:46:46;94352.31;;;5.68;100.00
34243;BME280;20504;43.214;27.920;2023-04-05T03:49:12;94313.34;;;5.84;100.00
34243;BME280;20504;43.214;27.920;2023-04-05T03:51:38;94380.47;;;5.61;100.00
34243;BME280;20504;43.214;27.920;2023-04-05T03:54:03;94354.84;;;5.75;100.00
34243;BME280;20504;43.214;27.920;2023-04-05T03:56:29;94367.19;;;5.74;100.00
34243;BME280;20504;43.214;27.920;2023-04-05T03:58:54;94335.59;;;5.81;100.00
34243;BME280;20504;43.214;27.920;2023-04-05T04:01:20;94355.16;;;5.85;100.00
34243;BME280;20504;43.214;27.920;2023-04-05T04:03:46;94360.19;;;5.87;100.00
34243;BME280;20504;43.214;27.920;2023-04-05T04:06:11;94370.34;;;5.83;100.00
34243;BME280;20504;43.214;27.920;2023-04-05T04:08:37;94436.81;;;5.65;100.00
34243;BME280;20504;43.214;27.920;2023-04-05T04:11:03;94527.69;;;5.41;100.00
34243;BME280;20504;43.214;27.920;2023-04-05T04:13:29;94506.09;;;5.39;100.00
34243;BME280;20504;43.214;27.920;2023-04-05T04:15:54;94518.03;;;5.35;100.00
34243;BME280;20504;43.214;27.920;2023-04-05T04:18:20;94515.84;;;5.57;100.00
34243;BME280;20504;43.214;27.920;2023-04-05T04:20:45;94569.94;;;5.40;100.00
34243;BME280;20504;43.214;27.920;2023-04-05T04:23:12;94545.69;;;5.38;100.00
34243;BME280;20504;43.214;27.920;2023-04-05T04:25:38;94534.59;;;5.36;100.00
34243;BME280;20504;43.214;27.920;2023-04-05T04:28:06;94501.75;;;5.20;100.00
34243;BME280;20504;43.214;27.920;2023-04-05T04:30:32;94517.31;;;5.22;100.00
34243;BME280;20504;43.214;27.920;2023-04-05T04:33:02;94511.22;;;5.28;100.00
34243;BME280;20504;43.214;27.920;2023-04-05T04:35:31;94451.59;;;5.60;100.00
34243;BME280;20504;43.214;27.920;2023-04-05T04:38:08;94457.91;;;5.52;100.00
34243;BME280;20504;43.214;27.920;2023-04-05T04:40:35;94446.13;;;5.61;100.00
34243;BME280;20504;43.214;27.920;2023-04-05T04:43:08;94422.06;;;5.64;100.00
34243;BME280;20504;43.214;27.920;2023-04-05T04:45:38;94392.88;;;5.72;100.00
34243;BME280;20504;43.214;27.920;2023-04-05T04:48:04;94410.09;;;5.68;100.00
34243;BME280;20504;43.214;27.920;2023-04-05T04:50:30;94396.69;;;5.58;100.00
34243;BME280;20504;43.214;27.920;2023-04-05T04:52:59;94447.19;;;5.54;100.00
34243;BME280;20504;43.214;27.920;2023-04-05T04:55:28;94515.53;;;5.15;100.00
34243;BME280;20504;43.214;27.920;2023-04-05T04:57:55;94478.72;;;5.54;100.00
34243;BME280;20504;43.214;27.920;2023-04-05T05:00:21;94452.72;;;5.45;100.00
34243;BME280;20504;43.214;27.920;2023-04-05T05:02:49;94463.22;;;5.45;100.00
34243;BME280;20504;43.214;27.920;2023-04-05T05:05:16;94407.06;;;5.46;100.00
34243;BME280;20504;43.214;27.920;2023-04-05T05:07:41;94413.06;;;5.54;100.00
34243;BME280;20504;43.214;27.920;2023-04-05T05:10:10;94365.53;;;5.62;100.00
34243;BME280;20504;43.214;27.920;2023-04-05T05:12:37;94380.16;;;5.51;100.00
34243;BME280;20504;43.214;27.920;2023-04-05T05:15:03;94342.81;;;5.49;100.00
34243;BME280;20504;43.214;27.920;2023-04-05T05:17:28;94259.09;;;5.59;100.00
34243;BME280;20504;43.214;27.920;2023-04-05T05:19:54;94273.72;;;5.67;100.00
34243;BME280;20504;43.214;27.920;2023-04-05T05:22:19;94233.38;;;5.80;100.00
34243;BME280;20504;43.214;27.920;2023-04-05T05:24:45;94236.88;;;5.73;100.00
34243;BME280;20504;43.214;27.920;2023-04-05T05:27:11;94204.31;;;5.74;100.00
34243;BME280;20504;43.214;27.920;2023-04-05T05:29:36;94246.22;;;5.69;100.00
34243;BME280;20504;43.214;27.920;2023-04-05T05:32:02;94208.59;;;5.87;100.00
34243;BME280;20504;43.214;27.920;2023-04-05T05:34:27;94169.13;;;5.94;100.00
34243;BME280;20504;43.214;27.920;2023-04-05T05:36:55;94170.31;;;5.98;100.00
34243;BME280;20504;43.214;27.920;2023-04-05T05:39:21;94174.56;;;5.81;100.00
34243;BME280;20504;43.214;27.920;2023-04-05T05:41:48;94187.47;;;5.82;100.00
34243;BME280;20504;43.214;27.920;2023-04-05T05:44:13;94238.69;;;5.73;100.00
34243;BME280;20504;43.214;27.920;2023-04-05T05:46:39;94212.13;;;5.81;100.00
34243;BME280;20504;43.214;27.920;2023-04-05T05:49:05;94207.31;;;5.78;100.00
34243;BME280;20504;43.214;27.920;2023-04-05T05:51:30;94175.56;;;5.98;100.00
34243;BME280;20504;43.214;27.920;2023-04-05T05:54:00;94129.84;;;6.11;100.00
34243;BME280;20504;43.214;27.920;2023-04-05T05:56:25;94072.28;;;6.21;100.00
34243;BME280;20504;43.214;27.920;2023-04-05T05:58:51;94111.22;;;6.12;100.00
34243;BME280;20504;43.214;27.920;2023-04-05T06:01:17;94072.97;;;6.28;100.00
34243;BME280;20504;43.214;27.920;2023-04-05T06:03:43;94088.63;;;6.23;100.00
34243;BME280;20504;43.214;27.920;2023-04-05T06:06:09;94139.56;;;6.10;100.00
34243;BME280;20504;43.214;27.920;2023-04-05T06:08:35;94150.00;;;6.17;100.00
34243;BME280;20504;43.214;27.920;2023-04-05T06:11:01;94202.53;;;6.05;100.00
34243;BME280;20504;43.214;27.920;2023-04-05T06:13:27;94221.47;;;5.95;100.00
34243;BME280;20504;43.214;27.920;2023-04-05T06:15:52;94216.59;;;6.11;100.00
34243;BME280;20504;43.214;27.920;2023-04-05T06:18:19;94228.63;;;6.18;100.00
34243;BME280;20504;43.214;27.920;2023-04-05T06:20:45;94235.50;;;6.31;100.00
34243;BME280;20504;43.214;27.920;2023-04-05T06:23:11;94237.56;;;6.29;100.00
34243;BME280;20504;43.214;27.920;2023-04-05T06:25:37;94310.25;;;6.23;100.00
34243;BME280;20504;43.214;27.920;2023-04-05T06:28:03;94318.81;;;6.19;100.00
34243;BME280;20504;43.214;27.920;2023-04-05T06:30:29;94404.09;;;6.23;100.00
34243;BME280;20504;43.214;27.920;2023-04-05T06:32:55;94451.66;;;6.21;100.00
34243;BME280;20504;43.214;27.920;2023-04-05T06:35:21;94561.22;;;6.02;100.00
34243;BME280;20504;43.214;27.920;2023-04-05T06:37:47;94545.28;;;6.22;100.00
34243;BME280;20504;43.214;27.920;2023-04-05T06:40:13;94597.47;;;6.19;100.00
34243;BME280;20504;43.214;27.920;2023-04-05T06:42:39;94730.75;;;6.18;100.00
34243;BME280;20504;43.214;27.920;2023-04-05T06:45:05;94746.69;;;6.23;100.00
34243;BME280;20504;43.214;27.920;2023-04-05T06:47:38;94844.78;;;6.24;100.00
34243;BME280;20504;43.214;27.920;2023-04-05T06:50:05;94946.53;;;6.23;100.00
34243;BME280;20504;43.214;27.920;2023-04-05T06:52:31;95007.78;;;6.30;100.00
34243;BME280;20504;43.214;27.920;2023-04-05T06:54:57;95070.72;;;6.32;100.00
34243;BME280;20504;43.214;27.920;2023-04-05T06:57:22;95187.25;;;6.26;100.00
34243;BME280;20504;43.214;27.920;2023-04-05T06:59:48;95239.88;;;6.39;100.00
34243;BME280;20504;43.214;27.920;2023-04-05T07:02:13;95306.22;;;6.41;100.00
34243;BME280;20504;43.214;27.920;2023-04-05T07:04:39;95371.00;;;6.49;100.00
34243;BME280;20504;43.214;27.920;2023-04-05T07:07:05;95356.28;;;6.74;100.00
34243;BME280;20504;43.214;27.920;2023-04-05T07:09:31;95435.00;;;6.69;100.00
34243;BME280;20504;43.214;27.920;2023-04-05T07:11:57;95480.41;;;6.78;100.00
34243;BME280;20504;43.214;27.920;2023-04-05T07:14:23;95574.38;;;6.84;100.00
34243;BME280;20504;43.214;27.920;2023-04-05T07:16:50;95693.47;;;6.86;100.00
34243;BME280;20504;43.214;27.920;2023-04-05T07:19:17;95768.25;;;6.91;100.00
34243;BME280;20504;43.214;27.920;2023-04-05T07:21:43;95899.72;;;6.93;100.00
34243;BME280;20504;43.214;27.920;2023-04-05T07:24:08;95964.38;;;7.17;100.00
34243;BME280;20504;43.214;27.920;2023-04-05T07:26:35;96086.34;;;7.17;100.00
34243;BME280;20504;43.214;27.920;2023-04-05T07:29:02;96217.53;;;7.22;100.00
34243;BME280;20504;43.214;27.920;2023-04-05T07:31:28;96366.50;;;7.24;100.00
34243;BME280;20504;43.214;27.920;2023-04-05T07:33:53;96500.38;;;7.29;100.00
34243;BME280;20504;43.214;27.920;2023-04-05T07:36:19;96643.75;;;7.43;100.00
34243;BME280;20504;43.214;27.920;2023-04-05T07:38:45;96806.69;;;7.47;100.00
34243;BME280;20504;43.214;27.920;2023-04-05T07:41:10;96985.78;;;7.49;100.00
34243;BME280;20504;43.214;27.920;2023-04-05T07:43:36;97153.84;;;7.47;100.00
34243;BME280;20504;43.214;27.920;2023-04-05T07:46:03;97340.75;;;7.58;100.00
34243;BME280;20504;43.214;27.920;2023-04-05T07:48:29;97454.31;;;7.82;100.00
34243;BME280;20504;43.214;27.920;2023-04-05T07:50:54;97600.00;;;7.94;100.00
34243;BME280;20504;43.214;27.920;2023-04-05T07:53:20;97820.09;;;8.01;100.00
34243;BME280;20504;43.214;27.920;2023-04-05T07:55:45;97972.66;;;8.25;100.00
34243;BME280;20504;43.214;27.920;2023-04-05T07:58:11;98135.22;;;8.47;100.00
34243;BME280;20504;43.214;27.920;2023-04-05T08:00:37;98276.41;;;8.72;100.00
34243;BME280;20504;43.214;27.920;2023-04-05T08:03:03;98466.81;;;8.70;100.00
34243;BME280;20504;43.214;27.920;2023-04-05T08:05:31;98641.97;;;8.52;100.00
34243;BME280;20504;43.214;27.920;2023-04-05T08:07:56;98813.22;;;8.78;100.00
34243;BME280;20504;43.214;27.920;2023-04-05T08:10:23;98965.56;;;8.79;100.00
34243;BME280;20504;43.214;27.920;2023-04-05T08:12:48;99082.09;;;8.99;100.00
34243;BME280;20504;43.214;27.920;2023-04-05T08:15:14;99185.91;;;9.12;100.00
34243;BME280;20504;43.214;27.920;2023-04-05T08:17:39;99313.47;;;9.16;100.00
34243;BME280;20504;43.214;27.920;2023-04-05T08:20:06;99427.84;;;9.30;100.00
34243;BME280;20504;43.214;27.920;2023-04-05T08:22:31;99537.13;;;9.55;100.00
34243;BME280;20504;43.214;27.920;2023-04-05T08:24:57;99676.38;;;9.45;100.00
34243;BME280;20504;43.214;27.920;2023-04-05T08:27:22;99839.13;;;9.26;100.00
34243;BME280;20504;43.214;27.920;2023-04-05T08:29:48;100002.38;;;9.38;100.00
34243;BME280;20504;43.214;27.920;2023-04-05T08:32:13;100144.19;;;9.55;100.00
34243;BME280;20504;43.214;27.920;2023-04-05T08:34:39;100309.81;;;9.59;100.00
34243;BME280;20504;43.214;27.920;2023-04-05T08:37:04;100508.44;;;9.29;100.00
34243;BME280;20504;43.214;27.920;2023-04-05T08:39:33;100711.47;;;9.43;100.00
34243;BME280;20504;43.214;27.920;2023-04-05T08:42:15;100846.72;;;9.38;100.00
34243;BME280;20504;43.214;27.920;2023-04-05T08:44:43;101071.81;;;9.71;100.00
34243;BME280;20504;43.214;27.920;2023-04-05T08:47:11;101309.22;;;9.74;100.00
34243;BME280;20504;43.214;27.920;2023-04-05T08:49:43;101567.50;;;9.64;100.00
34243;BME280;20504;43.214;27.920;2023-04-05T08:52:09;101840.97;;;9.70;100.00
34243;BME280;20504;43.214;27.920;2023-04-05T08:54:34;102119.88;;;9.51;100.00
34243;BME280;20504;43.214;27.920;2023-04-05T08:57:02;102426.84;;;9.60;100.00
34243;BME280;20504;43.214;27.920;2023-04-05T08:59:31;102719.81;;;9.70;100.00
34243;BME280;20504;43.214;27.920;2023-04-05T09:02:03;102978.16;;;9.51;100.00
34243;BME280;20504;43.214;27.920;2023-04-05T09:04:34;103237.25;;;9.32;100.00
34243;BME280;20504;43.214;27.920;2023-04-05T09:07:05;103512.81;;;9.24;100.00
34243;BME280;20504;43.214;27.920;2023-04-05T09:09:32;103773.09;;;9.45;100.00
34243;BME280;20504;43.214;27.920;2023-04-05T09:12:03;103972.00;;;9.13;100.00
34243;BME280;20504;43.214;27.920;2023-04-05T09:14:29;104256.28;;;9.51;100.00
34243;BME280;20504;43.214;27.920;2023-04-05T09:16:58;104456.81;;;9.55;100.00
34243;BME280;20504;43.214;27.920;2023-04-05T09:19:26;104674.22;;;9.61;100.00
34243;BME280;20504;43.214;27.920;2023-04-05T09:22:05;104804.13;;;9.60;100.00
34243;BME280;20504;43.214;27.920;2023-04-05T09:24:38;105028.16;;;10.05;100.00
34243;BME280;20504;43.214;27.920;2023-04-05T09:27:16;105187.44;;;10.11;100.00
34243;BME280;20504;43.214;27.920;2023-04-05T09:29:46;105294.31;;;10.02;100.00
34243;BME280;20504;43.214;27.920;2023-04-05T09:32:13;105428.84;;;10.06;100.00
34243;BME280;20504;43.214;27.920;2023-04-05T09:34:39;105561.31;;;9.94;100.00
34243;BME280;20504;43.214;27.920;2023-04-05T09:37:13;105682.69;;;10.04;100.00
34243;BME280;20504;43.214;27.920;2023-04-05T09:39:39;105829.53;;;10.92;100.00
34243;BME280;20504;43.214;27.920;2023-04-05T09:42:09;105915.09;;;11.19;100.00
34243;BME280;20504;43.214;27.920;2023-04-05T09:44:58;106017.28;;;11.34;100.00
34243;BME280;20504;43.214;27.920;2023-04-05T09:47:31;106188.09;;;11.61;100.00
34243;BME280;20504;43.214;27.920;2023-04-05T09:49:59;106578.78;;;11.77;100.00
34243;BME280;20504;43.214;27.920;2023-04-05T09:52:29;106603.34;;;11.67;100.00
34243;BME280;20504;43.214;27.920;2023-04-05T09:55:03;106614.25;;;11.45;100.00
34243;BME280;20504;43.214;27.920;2023-04-05T09:57:33;106603.84;;;11.22;100.00
34243;BME280;20504;43.214;27.920;2023-04-05T09:59:59;106634.72;;;11.47;100.00
34243;BME280;20504;43.214;27.920;2023-04-05T10:02:34;106601.97;;;11.18;100.00
34243;BME280;20504;43.214;27.920;2023-04-05T10:05:05;106597.69;;;11.55;100.00
34243;BME280;20504;43.214;27.920;2023-04-05T10:07:31;106550.97;;;11.66;100.00
34243;BME280;20504;43.214;27.920;2023-04-05T10:09:57;106518.72;;;11.87;100.00
34243;BME280;20504;43.214;27.920;2023-04-05T10:12:26;106436.41;;;11.60;100.00
34243;BME280;20504;43.214;27.920;2023-04-05T10:14:55;106345.16;;;11.28;100.00
34243;BME280;20504;43.214;27.920;2023-04-05T10:17:45;106226.53;;;10.97;100.00
34243;BME280;20504;43.214;27.920;2023-04-05T10:20:19;106232.97;;;11.87;100.00
34243;BME280;20504;43.214;27.920;2023-04-05T10:28:33;105996.78;;;12.28;100.00
34243;BME280;20504;43.214;27.920;2023-04-05T10:33:45;105827.09;;;12.21;100.00
34243;BME280;20504;43.214;27.920;2023-04-05T10:39:02;105633.75;;;12.39;100.00
34243;BME280;20504;43.214;27.920;2023-04-05T10:41:33;105559.31;;;12.56;100.00
34243;BME280;20504;43.214;27.920;2023-04-05T10:44:01;105483.81;;;12.53;100.00
34243;BME280;20504;43.214;27.920;2023-04-05T10:46:29;105403.03;;;12.60;100.00
34243;BME280;20504;43.214;27.920;2023-04-05T10:51:24;105255.56;;;12.35;100.00
34243;BME280;20504;43.214;27.920;2023-04-05T10:53:55;105189.00;;;12.64;100.00
34243;BME280;20504;43.214;27.920;2023-04-05T10:56:21;105105.53;;;12.34;100.00
34243;BME280;20504;43.214;27.920;2023-04-05T10:58:48;105086.88;;;12.11;100.00
34243;BME280;20504;43.214;27.920;2023-04-05T11:01:16;105020.34;;;12.13;100.00
34243;BME280;20504;43.214;27.920;2023-04-05T11:03:49;104968.00;;;12.10;100.00
34243;BME280;20504;43.214;27.920;2023-04-05T11:06:23;104955.53;;;12.37;100.00
34243;BME280;20504;43.214;27.920;2023-04-05T11:08:59;104899.69;;;11.96;100.00
34243;BME280;20504;43.214;27.920;2023-04-05T11:11:24;104812.75;;;11.76;100.00
34243;BME280;20504;43.214;27.920;2023-04-05T11:13:56;104778.84;;;12.42;100.00
34243;BME280;20504;43.214;27.920;2023-04-05T11:16:37;104764.63;;;12.50;100.00
34243;BME280;20504;43.214;27.920;2023-04-05T11:19:02;104731.03;;;12.21;100.00
34243;BME280;20504;43.214;27.920;2023-04-05T11:21:28;104719.34;;;12.43;100.00
34243;BME280;20504;43.214;27.920;2023-04-05T11:29:05;104540.41;;;12.98;100.00
34243;BME280;20504;43.214;27.920;2023-04-05T11:31:31;104517.25;;;13.03;100.00
34243;BME280;20504;43.214;27.920;2023-04-05T11:33:59;104495.44;;;13.43;100.00
34243;BME280;20504;43.214;27.920;2023-04-05T11:36:46;104519.06;;;13.01;100.00
34243;BME280;20504;43.214;27.920;2023-04-05T11:42:08;104465.56;;;13.15;100.00
34243;BME280;20504;43.214;27.920;2023-04-05T11:44:45;104472.09;;;12.91;100.00
34243;BME280;20504;43.214;27.920;2023-04-05T11:47:11;104427.69;;;12.90;100.00
34243;BME280;20504;43.214;27.920;2023-04-05T11:49:38;104402.66;;;12.25;100.00
34243;BME280;20504;43.214;27.920;2023-04-05T11:52:13;104425.69;;;12.32;100.00
34243;BME280;20504;43.214;27.920;2023-04-05T11:54:40;104388.34;;;12.37;100.00
34243;BME280;20504;43.214;27.920;2023-04-05T11:57:21;104374.16;;;12.36;100.00
34243;BME280;20504;43.214;27.920;2023-04-05T11:59:49;104356.38;;;12.38;100.00
34243;BME280;20504;43.214;27.920;2023-04-05T12:02:16;104342.50;;;12.12;100.00
34243;BME280;20504;43.214;27.920;2023-04-05T12:04:42;104320.41;;;12.02;100.00
34243;BME280;20504;43.214;27.920;2023-04-05T12:07:18;104296.59;;;11.90;100.00
34243;BME280;20504;43.214;27.920;2023-04-05T12:10:07;104261.72;;;12.15;100.00
34243;BME280;20504;43.214;27.920;2023-04-05T12:12:38;104214.75;;;12.12;100.00
34243;BME280;20504;43.214;27.920;2023-04-05T12:15:05;104198.81;;;12.10;100.00
34243;BME280;20504;43.214;27.920;2023-04-05T12:17:49;104136.91;;;12.56;100.00
34243;BME280;20504;43.214;27.920;2023-04-05T12:20:18;104108.28;;;13.20;100.00
34243;BME280;20504;43.214;27.920;2023-04-05T12:22:45;104065.78;;;13.97;100.00
34243;BME280;20504;43.214;27.920;2023-04-05T12:25:14;104123.44;;;13.64;100.00
34243;BME280;20504;43.214;27.920;2023-04-05T12:27:40;104130.81;;;13.93;100.00
34243;BME280;20504;43.214;27.920;2023-04-05T12:32:54;104120.28;;;15.00;100.00
34243;BME280;20504;43.214;27.920;2023-04-05T12:35:22;104162.41;;;14.54;100.00
34243;BME280;20504;43.214;27.920;2023-04-05T12:37:57;104248.88;;;14.49;100.00
34243;BME280;20504;43.214;27.920;2023-04-05T12:40:23;104324.09;;;13.81;100.00
34243;BME280;20504;43.214;27.920;2023-04-05T12:42:49;104330.53;;;13.13;100.00
34243;BME280;20504;43.214;27.920;2023-04-05T12:45:15;104286.94;;;13.18;100.00
34243;BME280;20504;43.214;27.920;2023-04-05T12:47:59;104241.38;;;13.32;100.00
34243;BME280;20504;43.214;27.920;2023-04-05T12:50:30;104185.63;;;13.17;100.00
34243;BME280;20504;43.214;27.920;2023-04-05T12:53:00;104172.31;;;13.15;100.00
34243;BME280;20504;43.214;27.920;2023-04-05T12:55:27;104147.81;;;12.95;100.00
34243;BME280;20504;43.214;27.920;2023-04-05T12:57:57;104143.09;;;12.57;100.00
34243;BME280;20504;43.214;27.920;2023-04-05T13:00:24;104150.69;;;12.24;100.00
34243;BME280;20504;43.214;27.920;2023-04-05T13:02:52;104126.84;;;12.17;100.00
34243;BME280;20504;43.214;27.920;2023-04-05T13:05:23;104062.22;;;12.62;100.00
34243;BME280;20504;43.214;27.920;2023-04-05T13:07:48;104037.38;;;12.62;100.00
34243;BME280;20504;43.214;27.920;2023-04-05T13:10:15;104010.44;;;12.79;100.00
34243;BME280;20504;43.214;27.920;2023-04-05T13:12:41;103923.88;;;12.99;100.00
34243;BME280;20504;43.214;27.920;2023-04-05T13:15:08;103894.72;;;13.33;100.00
34243;BME280;20504;43.214;27.920;2023-04-05T13:17:33;103923.91;;;13.41;100.00
34243;BME280;20504;43.214;27.920;2023-04-05T13:19:59;103946.25;;;13.34;100.00
34243;BME280;20504;43.214;27.920;2023-04-05T13:22:24;103956.75;;;13.43;100.00
34243;BME280;20504;43.214;27.920;2023-04-05T13:24:50;103987.50;;;13.18;100.00